createdAt,value
2022-08-17T00:03:40.687Z,72.92
2022-08-17T00:18:53.668Z,73.42
2022-08-17T00:33:32.947Z,72.29
2022-08-17T00:48:29.699Z,73.02
2022-08-17T01:03:25.368Z,75.49
2022-08-17T01:18:21.270Z,74.51
2022-08-17T01:33:17.654Z,76.34
2022-08-17T01:48:13.964Z,79.18
2022-08-17T02:03:09.824Z,80.31
2022-08-17T02:18:05.891Z,79.87
2022-08-17T02:33:04.124Z,81.29
2022-08-17T02:47:58.354Z,81.48
2022-08-17T03:02:54.344Z,82.82
2022-08-17T03:17:51.019Z,83.94
2022-08-17T03:32:46.966Z,81.05
2022-08-17T03:47:43.167Z,79.6
2022-08-17T04:02:39.321Z,80.02
2022-08-17T04:17:35.697Z,80.79
2022-08-17T04:32:58.439Z,80.51
2022-08-17T04:47:28.348Z,81.8
2022-08-17T05:02:24.616Z,82.58
2022-08-17T05:17:21.004Z,81.3
2022-08-17T05:32:37.572Z,81.48
2022-08-17T05:47:13.966Z,79.03
2022-08-17T06:02:09.942Z,74.21
2022-08-17T06:17:07.094Z,72.93
2022-08-17T06:32:03.939Z,69.86
2022-08-17T06:47:00.643Z,69.67
2022-08-17T07:01:57.155Z,67.09
2022-08-17T07:16:53.848Z,68.21
2022-08-17T07:31:49.904Z,66.55
2022-08-17T07:46:46.100Z,64.79
2022-08-17T08:01:42.826Z,68.22
2022-08-17T08:16:38.961Z,69.61
2022-08-17T08:31:37.734Z,72.05
2022-08-17T08:46:30.821Z,72.32
2022-08-17T09:01:26.641Z,74.75
2022-08-17T09:16:22.715Z,75.51
2022-08-17T09:31:19.399Z,62.87
2022-08-17T09:46:16.615Z,52.63
2022-08-17T10:01:14.252Z,49.61
2022-08-17T10:16:11.496Z,53.58
2022-08-17T10:46:09.324Z,45.88
2022-08-17T11:01:02.088Z,51.55
2022-08-17T11:15:59.992Z,50.94
2022-08-17T11:30:53.846Z,48.14
2022-08-17T11:45:50.823Z,46.63
2022-08-17T12:00:47.711Z,43.75
2022-08-17T12:15:44.440Z,43.78
2022-08-17T12:30:40.749Z,45.75
2022-08-17T12:45:37.716Z,44.42
2022-08-17T13:00:34.479Z,46.43
2022-08-17T13:15:30.109Z,46.78
2022-08-17T13:30:26.650Z,46.91
2022-08-17T13:45:35.766Z,49.91
2022-08-17T14:00:18.134Z,49.07
2022-08-17T14:15:14.060Z,49.75
2022-08-17T14:30:09.532Z,50.06
2022-08-17T14:45:05.866Z,50.51
2022-08-17T15:00:01.921Z,50.57
2022-08-17T15:14:58.601Z,49.23
2022-08-17T15:29:54.317Z,50.22
2022-08-17T15:44:50.706Z,50.36
2022-08-17T15:59:46.802Z,50.08
2022-08-17T16:14:42.917Z,48.68
2022-08-17T16:29:39.355Z,47.39
2022-08-17T16:44:35.385Z,45.96
2022-08-17T16:59:39.593Z,45.35
2022-08-17T17:14:27.095Z,45.85
2022-08-17T17:29:22.738Z,47.11
2022-08-17T17:44:19.699Z,47.49
2022-08-17T17:59:15.418Z,48.9
2022-08-17T18:14:11.447Z,51.39
2022-08-17T18:29:07.490Z,53.99
2022-08-17T18:44:03.278Z,56.04
2022-08-17T18:58:59.350Z,57.01
2022-08-17T19:13:55.084Z,59.68
2022-08-17T19:28:51.434Z,61.31
2022-08-17T19:43:47.478Z,64.24
2022-08-17T19:58:43.402Z,68.01
2022-08-17T20:13:39.402Z,71.8
2022-08-17T20:28:35.571Z,75.76
2022-08-17T20:43:31.457Z,77.6
2022-08-17T20:58:30.027Z,80.55
2022-08-17T21:13:23.749Z,80.53
2022-08-17T21:28:20.457Z,80.7
2022-08-17T21:43:16.601Z,81.79
2022-08-17T21:58:14.465Z,81.67
2022-08-17T22:13:16.351Z,82.74
2022-08-17T22:28:05.652Z,84.54
2022-08-17T22:43:01.366Z,86.49
2022-08-17T22:57:57.684Z,89.66
2022-08-17T23:12:53.252Z,89.46
2022-08-17T23:27:49.206Z,90.05
2022-08-17T23:42:46.410Z,92.21
2022-08-17T23:57:40.991Z,93.91
